sensor_id;sensor_type;location;lat;lon;timestamp;P1;durP1;ratioP1;P2;durP2;ratioP2
18576;SDS011;9418;52.694;13.294;2022-09-09T00:01:40;10.10;;;9.20;;
18576;SDS011;9418;52.694;13.294;2022-09-09T00:04:18;11.00;;;8.47;;
18576;SDS011;9418;52.694;13.294;2022-09-09T00:06:55;12.13;;;8.67;;
18576;SDS011;9418;52.694;13.294;2022-09-09T00:09:29;9.83;;;8.93;;
18576;SDS011;9418;52.694;13.294;2022-09-09T00:11:58;13.60;;;8.93;;
18576;SDS011;9418;52.694;13.294;2022-09-09T00:14:34;9.90;;;8.90;;
18576;SDS011;9418;52.694;13.294;2022-09-09T00:17:08;9.30;;;8.40;;
18576;SDS011;9418;52.694;13.294;2022-09-09T00:19:39;9.27;;;8.50;;
18576;SDS011;9418;52.694;13.294;2022-09-09T00:22:16;10.63;;;8.43;;
18576;SDS011;9418;52.694;13.294;2022-09-09T00:24:45;10.03;;;9.13;;
18576;SDS011;9418;52.694;13.294;2022-09-09T00:27:16;9.97;;;9.00;;
18576;SDS011;9418;52.694;13.294;2022-09-09T00:29:51;8.77;;;7.93;;
18576;SDS011;9418;52.694;13.294;2022-09-09T00:32:20;9.10;;;7.77;;
18576;SDS011;9418;52.694;13.294;2022-09-09T00:34:49;8.43;;;7.63;;
18576;SDS011;9418;52.694;13.294;2022-09-09T00:37:19;7.40;;;6.73;;
18576;SDS011;9418;52.694;13.294;2022-09-09T00:39:47;16.20;;;7.30;;
18576;SDS011;9418;52.694;13.294;2022-09-09T00:42:17;11.50;;;7.40;;
18576;SDS011;9418;52.694;13.294;2022-09-09T00:44:52;7.93;;;7.20;;
18576;SDS011;9418;52.694;13.294;2022-09-09T00:47:31;10.23;;;7.10;;
18576;SDS011;9418;52.694;13.294;2022-09-09T00:50:10;6.40;;;5.90;;
18576;SDS011;9418;52.694;13.294;2022-09-09T00:52:57;7.03;;;6.43;;
18576;SDS011;9418;52.694;13.294;2022-09-09T00:55:33;7.97;;;6.87;;
18576;SDS011;9418;52.694;13.294;2022-09-09T00:58:10;6.50;;;6.00;;
18576;SDS011;9418;52.694;13.294;2022-09-09T01:00:41;7.20;;;6.60;;
18576;SDS011;9418;52.694;13.294;2022-09-09T01:03:17;8.40;;;7.33;;
18576;SDS011;9418;52.694;13.294;2022-09-09T01:05:50;10.83;;;7.40;;
18576;SDS011;9418;52.694;13.294;2022-09-09T01:08:31;7.80;;;7.10;;
18576;SDS011;9418;52.694;13.294;2022-09-09T01:11:21;8.47;;;7.50;;
18576;SDS011;9418;52.694;13.294;2022-09-09T01:13:52;9.17;;;6.80;;
18576;SDS011;9418;52.694;13.294;2022-09-09T01:16:26;7.63;;;6.97;;
18576;SDS011;9418;52.694;13.294;2022-09-09T01:18:56;16.60;;;6.90;;
18576;SDS011;9418;52.694;13.294;2022-09-09T01:21:27;10.00;;;6.70;;
18576;SDS011;9418;52.694;13.294;2022-09-09T01:24:13;6.97;;;6.37;;
18576;SDS011;9418;52.694;13.294;2022-09-09T01:26:49;7.10;;;6.40;;
18576;SDS011;9418;52.694;13.294;2022-09-09T01:29:21;10.00;;;6.67;;
18576;SDS011;9418;52.694;13.294;2022-09-09T01:31:52;7.00;;;6.30;;
18576;SDS011;9418;52.694;13.294;2022-09-09T01:34:21;6.97;;;6.37;;
18576;SDS011;9418;52.694;13.294;2022-09-09T01:36:51;7.27;;;6.20;;
18576;SDS011;9418;52.694;13.294;2022-09-09T01:39:22;11.70;;;5.73;;
18576;SDS011;9418;52.694;13.294;2022-09-09T01:41:50;7.17;;;6.47;;
18576;SDS011;9418;52.694;13.294;2022-09-09T01:44:17;11.83;;;6.33;;
18576;SDS011;9418;52.694;13.294;2022-09-09T01:46:45;7.20;;;6.40;;
18576;SDS011;9418;52.694;13.294;2022-09-09T01:49:12;7.00;;;6.30;;
18576;SDS011;9418;52.694;13.294;2022-09-09T01:51:39;6.97;;;6.40;;
18576;SDS011;9418;52.694;13.294;2022-09-09T01:54:09;7.73;;;6.97;;
18576;SDS011;9418;52.694;13.294;2022-09-09T01:56:40;7.23;;;6.43;;
18576;SDS011;9418;52.694;13.294;2022-09-09T01:59:21;10.30;;;6.63;;
18576;SDS011;9418;52.694;13.294;2022-09-09T02:01:59;7.63;;;7.00;;
18576;SDS011;9418;52.694;13.294;2022-09-09T02:04:36;7.20;;;6.57;;
18576;SDS011;9418;52.694;13.294;2022-09-09T02:07:06;7.10;;;6.43;;
18576;SDS011;9418;52.694;13.294;2022-09-09T02:09:46;6.27;;;5.77;;
18576;SDS011;9418;52.694;13.294;2022-09-09T02:12:18;6.97;;;6.37;;
18576;SDS011;9418;52.694;13.294;2022-09-09T02:14:52;8.67;;;6.87;;
18576;SDS011;9418;52.694;13.294;2022-09-09T02:17:25;8.10;;;6.67;;
18576;SDS011;9418;52.694;13.294;2022-09-09T02:19:56;13.33;;;6.30;;
18576;SDS011;9418;52.694;13.294;2022-09-09T02:22:30;8.13;;;6.87;;
18576;SDS011;9418;52.694;13.294;2022-09-09T02:25:00;7.50;;;6.67;;
18576;SDS011;9418;52.694;13.294;2022-09-09T02:27:28;8.90;;;6.90;;
18576;SDS011;9418;52.694;13.294;2022-09-09T02:29:56;8.47;;;7.53;;
18576;SDS011;9418;52.694;13.294;2022-09-09T02:32:27;7.73;;;6.80;;
18576;SDS011;9418;52.694;13.294;2022-09-09T02:34:58;8.90;;;6.70;;
18576;SDS011;9418;52.694;13.294;2022-09-09T02:37:28;9.40;;;7.20;;
18576;SDS011;9418;52.694;13.294;2022-09-09T02:40:00;7.90;;;7.20;;
18576;SDS011;9418;52.694;13.294;2022-09-09T02:42:27;8.20;;;7.50;;
18576;SDS011;9418;52.694;13.294;2022-09-09T02:44:54;7.13;;;6.53;;
18576;SDS011;9418;52.694;13.294;2022-09-09T02:47:25;8.00;;;6.87;;
18576;SDS011;9418;52.694;13.294;2022-09-09T02:49:57;7.60;;;6.90;;
18576;SDS011;9418;52.694;13.294;2022-09-09T02:52:33;17.73;;;7.27;;
18576;SDS011;9418;52.694;13.294;2022-09-09T02:55:10;6.90;;;6.40;;
18576;SDS011;9418;52.694;13.294;2022-09-09T02:57:43;14.80;;;6.67;;
18576;SDS011;9418;52.694;13.294;2022-09-09T03:00:13;8.03;;;7.23;;
18576;SDS011;9418;52.694;13.294;2022-09-09T03:02:41;6.33;;;5.93;;
18576;SDS011;9418;52.694;13.294;2022-09-09T03:05:10;13.43;;;6.20;;
18576;SDS011;9418;52.694;13.294;2022-09-09T03:07:38;7.97;;;7.23;;
18576;SDS011;9418;52.694;13.294;2022-09-09T03:10:05;8.43;;;7.63;;
18576;SDS011;9418;52.694;13.294;2022-09-09T03:12:33;13.00;;;6.77;;
18576;SDS011;9418;52.694;13.294;2022-09-09T03:14:59;8.60;;;6.20;;
18576;SDS011;9418;52.694;13.294;2022-09-09T03:17:26;6.63;;;5.87;;
18576;SDS011;9418;52.694;13.294;2022-09-09T03:19:54;6.13;;;5.63;;
18576;SDS011;9418;52.694;13.294;2022-09-09T03:22:22;8.20;;;6.63;;
18576;SDS011;9418;52.694;13.294;2022-09-09T03:24:50;10.70;;;7.27;;
18576;SDS011;9418;52.694;13.294;2022-09-09T03:27:17;8.20;;;7.57;;
18576;SDS011;9418;52.694;13.294;2022-09-09T03:29:44;8.97;;;6.70;;
18576;SDS011;9418;52.694;13.294;2022-09-09T03:32:11;6.90;;;6.20;;
18576;SDS011;9418;52.694;13.294;2022-09-09T03:34:38;6.77;;;6.20;;
18576;SDS011;9418;52.694;13.294;2022-09-09T03:37:06;6.27;;;5.70;;
18576;SDS011;9418;52.694;13.294;2022-09-09T03:39:33;8.60;;;6.17;;
18576;SDS011;9418;52.694;13.294;2022-09-09T03:42:00;10.40;;;6.23;;
18576;SDS011;9418;52.694;13.294;2022-09-09T03:44:28;7.67;;;6.97;;
18576;SDS011;9418;52.694;13.294;2022-09-09T03:46:55;8.60;;;6.00;;
18576;SDS011;9418;52.694;13.294;2022-09-09T03:49:25;7.50;;;6.77;;
18576;SDS011;9418;52.694;13.294;2022-09-09T03:51:53;6.40;;;5.87;;
18576;SDS011;9418;52.694;13.294;2022-09-09T03:54:22;8.00;;;6.10;;
18576;SDS011;9418;52.694;13.294;2022-09-09T03:56:49;7.00;;;6.40;;
18576;SDS011;9418;52.694;13.294;2022-09-09T03:59:15;6.77;;;6.27;;
18576;SDS011;9418;52.694;13.294;2022-09-09T04:01:42;7.13;;;6.53;;
18576;SDS011;9418;52.694;13.294;2022-09-09T04:04:10;6.57;;;6.00;;
18576;SDS011;9418;52.694;13.294;2022-09-09T04:06:37;6.77;;;6.10;;
18576;SDS011;9418;52.694;13.294;2022-09-09T04:09:03;7.47;;;6.70;;
18576;SDS011;9418;52.694;13.294;2022-09-09T04:11:31;7.53;;;6.70;;
18576;SDS011;9418;52.694;13.294;2022-09-09T04:13:58;8.40;;;7.10;;
18576;SDS011;9418;52.694;13.294;2022-09-09T04:16:25;7.33;;;6.73;;
18576;SDS011;9418;52.694;13.294;2022-09-09T04:18:52;8.10;;;6.77;;
18576;SDS011;9418;52.694;13.294;2022-09-09T04:21:19;7.33;;;6.60;;
18576;SDS011;9418;52.694;13.294;2022-09-09T04:23:46;7.23;;;6.63;;
18576;SDS011;9418;52.694;13.294;2022-09-09T04:26:12;13.10;;;7.53;;
18576;SDS011;9418;52.694;13.294;2022-09-09T04:28:40;7.77;;;7.07;;
18576;SDS011;9418;52.694;13.294;2022-09-09T04:31:07;8.03;;;7.23;;
18576;SDS011;9418;52.694;13.294;2022-09-09T04:33:36;7.50;;;6.90;;
18576;SDS011;9418;52.694;13.294;2022-09-09T04:36:03;6.87;;;6.17;;
18576;SDS011;9418;52.694;13.294;2022-09-09T04:38:30;8.80;;;6.70;;
18576;SDS011;9418;52.694;13.294;2022-09-09T04:40:56;7.83;;;7.13;;
18576;SDS011;9418;52.694;13.294;2022-09-09T04:43:23;9.00;;;8.10;;
18576;SDS011;9418;52.694;13.294;2022-09-09T04:45:53;7.83;;;6.90;;
18576;SDS011;9418;52.694;13.294;2022-09-09T04:48:20;17.50;;;7.33;;
18576;SDS011;9418;52.694;13.294;2022-09-09T04:50:53;9.23;;;5.93;;
18576;SDS011;9418;52.694;13.294;2022-09-09T04:53:21;8.97;;;7.07;;
18576;SDS011;9418;52.694;13.294;2022-09-09T04:55:48;7.60;;;6.80;;
18576;SDS011;9418;52.694;13.294;2022-09-09T04:58:14;7.47;;;6.87;;
18576;SDS011;9418;52.694;13.294;2022-09-09T05:00:41;7.47;;;6.73;;
18576;SDS011;9418;52.694;13.294;2022-09-09T05:03:09;13.47;;;6.97;;
18576;SDS011;9418;52.694;13.294;2022-09-09T05:05:35;8.53;;;7.03;;
18576;SDS011;9418;52.694;13.294;2022-09-09T05:08:02;7.00;;;6.40;;
18576;SDS011;9418;52.694;13.294;2022-09-09T05:10:29;6.53;;;6.03;;
18576;SDS011;9418;52.694;13.294;2022-09-09T05:12:56;7.97;;;7.23;;
18576;SDS011;9418;52.694;13.294;2022-09-09T05:15:23;6.40;;;5.80;;
18576;SDS011;9418;52.694;13.294;2022-09-09T05:17:49;6.57;;;6.07;;
18576;SDS011;9418;52.694;13.294;2022-09-09T05:20:19;5.60;;;5.20;;
18576;SDS011;9418;52.694;13.294;2022-09-09T05:22:46;7.23;;;6.53;;
18576;SDS011;9418;52.694;13.294;2022-09-09T05:25:12;9.40;;;6.63;;
18576;SDS011;9418;52.694;13.294;2022-09-09T05:27:39;11.90;;;6.13;;
18576;SDS011;9418;52.694;13.294;2022-09-09T05:30:06;6.07;;;5.47;;
18576;SDS011;9418;52.694;13.294;2022-09-09T05:32:34;7.47;;;6.73;;
18576;SDS011;9418;52.694;13.294;2022-09-09T05:35:01;8.07;;;6.30;;
18576;SDS011;9418;52.694;13.294;2022-09-09T05:37:29;5.90;;;5.40;;
18576;SDS011;9418;52.694;13.294;2022-09-09T05:39:57;9.57;;;5.50;;
18576;SDS011;9418;52.694;13.294;2022-09-09T05:42:23;6.30;;;5.70;;
18576;SDS011;9418;52.694;13.294;2022-09-09T05:44:50;8.00;;;5.60;;
18576;SDS011;9418;52.694;13.294;2022-09-09T05:47:19;6.10;;;5.50;;
18576;SDS011;9418;52.694;13.294;2022-09-09T05:49:45;7.40;;;5.47;;
18576;SDS011;9418;52.694;13.294;2022-09-09T05:52:12;5.20;;;4.70;;
18576;SDS011;9418;52.694;13.294;2022-09-09T05:54:40;7.50;;;6.80;;
18576;SDS011;9418;52.694;13.294;2022-09-09T05:57:08;10.00;;;7.20;;
18576;SDS011;9418;52.694;13.294;2022-09-09T05:59:34;7.10;;;6.40;;
18576;SDS011;9418;52.694;13.294;2022-09-09T06:02:01;9.53;;;5.97;;
18576;SDS011;9418;52.694;13.294;2022-09-09T06:04:28;6.73;;;6.03;;
18576;SDS011;9418;52.694;13.294;2022-09-09T06:06:55;6.00;;;5.50;;
18576;SDS011;9418;52.694;13.294;2022-09-09T06:09:22;6.27;;;5.67;;
18576;SDS011;9418;52.694;13.294;2022-09-09T06:11:50;6.33;;;5.47;;
18576;SDS011;9418;52.694;13.294;2022-09-09T06:14:16;6.40;;;5.37;;
18576;SDS011;9418;52.694;13.294;2022-09-09T06:16:43;6.37;;;5.77;;
18576;SDS011;9418;52.694;13.294;2022-09-09T06:19:10;8.57;;;5.93;;
18576;SDS011;9418;52.694;13.294;2022-09-09T06:21:37;5.63;;;5.23;;
18576;SDS011;9418;52.694;13.294;2022-09-09T06:24:05;6.80;;;5.97;;
18576;SDS011;9418;52.694;13.294;2022-09-09T06:26:33;6.13;;;5.63;;
18576;SDS011;9418;52.694;13.294;2022-09-09T06:29:02;9.07;;;5.77;;
18576;SDS011;9418;52.694;13.294;2022-09-09T06:31:30;8.63;;;5.97;;
18576;SDS011;9418;52.694;13.294;2022-09-09T06:33:59;9.77;;;6.07;;
18576;SDS011;9418;52.694;13.294;2022-09-09T06:36:27;5.73;;;5.20;;
18576;SDS011;9418;52.694;13.294;2022-09-09T06:38:55;9.37;;;5.07;;
18576;SDS011;9418;52.694;13.294;2022-09-09T06:41:23;4.93;;;4.50;;
18576;SDS011;9418;52.694;13.294;2022-09-09T06:43:51;5.07;;;4.57;;
18576;SDS011;9418;52.694;13.294;2022-09-09T06:46:19;5.57;;;4.73;;
18576;SDS011;9418;52.694;13.294;2022-09-09T06:48:47;8.60;;;5.43;;
18576;SDS011;9418;52.694;13.294;2022-09-09T06:51:14;5.80;;;4.30;;
18576;SDS011;9418;52.694;13.294;2022-09-09T06:53:43;8.90;;;4.77;;
18576;SDS011;9418;52.694;13.294;2022-09-09T06:56:18;6.30;;;4.90;;
18576;SDS011;9418;52.694;13.294;2022-09-09T06:58:48;5.43;;;4.93;;
18576;SDS011;9418;52.694;13.294;2022-09-09T07:01:16;5.70;;;4.50;;
18576;SDS011;9418;52.694;13.294;2022-09-09T07:03:46;6.83;;;4.40;;
18576;SDS011;9418;52.694;13.294;2022-09-09T07:06:15;5.80;;;4.40;;
18576;SDS011;9418;52.694;13.294;2022-09-09T07:08:47;6.87;;;4.43;;
18576;SDS011;9418;52.694;13.294;2022-09-09T07:11:15;7.53;;;4.67;;
18576;SDS011;9418;52.694;13.294;2022-09-09T07:13:42;7.23;;;4.70;;
18576;SDS011;9418;52.694;13.294;2022-09-09T07:16:09;5.50;;;4.30;;
18576;SDS011;9418;52.694;13.294;2022-09-09T07:18:38;5.77;;;4.17;;
18576;SDS011;9418;52.694;13.294;2022-09-09T07:21:08;5.73;;;3.27;;
18576;SDS011;9418;52.694;13.294;2022-09-09T07:23:36;7.03;;;3.63;;
18576;SDS011;9418;52.694;13.294;2022-09-09T07:26:06;7.00;;;3.17;;
18576;SDS011;9418;52.694;13.294;2022-09-09T07:28:34;5.33;;;3.20;;
18576;SDS011;9418;52.694;13.294;2022-09-09T07:31:01;4.13;;;3.27;;
18576;SDS011;9418;52.694;13.294;2022-09-09T07:33:29;4.97;;;3.63;;
18576;SDS011;9418;52.694;13.294;2022-09-09T07:36:01;4.87;;;3.20;;
18576;SDS011;9418;52.694;13.294;2022-09-09T07:38:31;3.23;;;3.00;;
18576;SDS011;9418;52.694;13.294;2022-09-09T07:41:02;3.87;;;2.77;;
18576;SDS011;9418;52.694;13.294;2022-09-09T07:43:30;5.57;;;3.80;;
18576;SDS011;9418;52.694;13.294;2022-09-09T07:45:58;4.83;;;2.77;;
18576;SDS011;9418;52.694;13.294;2022-09-09T07:48:26;4.70;;;3.07;;
18576;SDS011;9418;52.694;13.294;2022-09-09T07:50:52;7.03;;;2.97;;
18576;SDS011;9418;52.694;13.294;2022-09-09T07:53:32;3.63;;;3.03;;
18576;SDS011;9418;52.694;13.294;2022-09-09T07:56:02;5.93;;;3.30;;
18576;SDS011;9418;52.694;13.294;2022-09-09T07:58:30;5.87;;;2.63;;
18576;SDS011;9418;52.694;13.294;2022-09-09T08:00:56;5.10;;;3.67;;
18576;SDS011;9418;52.694;13.294;2022-09-09T08:03:23;2.50;;;2.30;;
18576;SDS011;9418;52.694;13.294;2022-09-09T08:05:50;2.60;;;1.90;;
18576;SDS011;9418;52.694;13.294;2022-09-09T08:08:17;7.77;;;2.60;;
18576;SDS011;9418;52.694;13.294;2022-09-09T08:10:44;5.33;;;2.83;;
18576;SDS011;9418;52.694;13.294;2022-09-09T08:13:11;3.63;;;2.40;;
18576;SDS011;9418;52.694;13.294;2022-09-09T08:15:38;7.40;;;2.90;;
18576;SDS011;9418;52.694;13.294;2022-09-09T08:18:07;4.93;;;2.50;;
18576;SDS011;9418;52.694;13.294;2022-09-09T08:20:35;6.83;;;2.23;;
18576;SDS011;9418;52.694;13.294;2022-09-09T08:23:02;4.53;;;2.23;;
18576;SDS011;9418;52.694;13.294;2022-09-09T08:25:29;3.53;;;2.60;;
18576;SDS011;9418;52.694;13.294;2022-09-09T08:27:57;2.90;;;2.37;;
18576;SDS011;9418;52.694;13.294;2022-09-09T08:30:24;5.33;;;2.37;;
18576;SDS011;9418;52.694;13.294;2022-09-09T08:32:51;4.40;;;2.10;;
18576;SDS011;9418;52.694;13.294;2022-09-09T08:35:18;4.93;;;2.63;;
18576;SDS011;9418;52.694;13.294;2022-09-09T08:37:45;4.13;;;2.33;;
18576;SDS011;9418;52.694;13.294;2022-09-09T08:40:12;3.73;;;1.87;;
18576;SDS011;9418;52.694;13.294;2022-09-09T08:42:49;2.33;;;1.73;;
18576;SDS011;9418;52.694;13.294;2022-09-09T08:45:22;3.83;;;2.13;;
18576;SDS011;9418;52.694;13.294;2022-09-09T08:47:56;3.17;;;2.17;;
18576;SDS011;9418;52.694;13.294;2022-09-09T08:50:34;9.70;;;2.20;;
18576;SDS011;9418;52.694;13.294;2022-09-09T08:53:04;2.70;;;1.90;;
18576;SDS011;9418;52.694;13.294;2022-09-09T08:55:37;3.90;;;1.70;;
18576;SDS011;9418;52.694;13.294;2022-09-09T08:58:10;3.20;;;1.57;;
18576;SDS011;9418;52.694;13.294;2022-09-09T09:00:43;6.20;;;2.53;;
18576;SDS011;9418;52.694;13.294;2022-09-09T09:03:35;1.80;;;1.60;;
18576;SDS011;9418;52.694;13.294;2022-09-09T09:06:13;2.90;;;1.87;;
18576;SDS011;9418;52.694;13.294;2022-09-09T09:09:02;5.13;;;1.80;;
18576;SDS011;9418;52.694;13.294;2022-09-09T09:11:35;4.33;;;1.83;;
18576;SDS011;9418;52.694;13.294;2022-09-09T09:14:05;3.27;;;1.70;;
18576;SDS011;9418;52.694;13.294;2022-09-09T09:16:38;5.23;;;2.30;;
18576;SDS011;9418;52.694;13.294;2022-09-09T09:19:08;3.73;;;1.77;;
18576;SDS011;9418;52.694;13.294;2022-09-09T09:21:41;2.70;;;2.20;;
18576;SDS011;9418;52.694;13.294;2022-09-09T09:24:13;5.93;;;2.00;;
18576;SDS011;9418;52.694;13.294;2022-09-09T09:26:44;2.17;;;1.90;;
18576;SDS011;9418;52.694;13.294;2022-09-09T09:29:11;3.73;;;1.97;;
18576;SDS011;9418;52.694;13.294;2022-09-09T09:31:42;5.53;;;2.00;;
18576;SDS011;9418;52.694;13.294;2022-09-09T09:34:12;2.23;;;2.03;;
18576;SDS011;9418;52.694;13.294;2022-09-09T09:36:40;4.60;;;1.77;;
18576;SDS011;9418;52.694;13.294;2022-09-09T09:39:21;4.27;;;2.10;;
18576;SDS011;9418;52.694;13.294;2022-09-09T09:41:49;7.70;;;2.17;;
18576;SDS011;9418;52.694;13.294;2022-09-09T09:44:22;9.03;;;2.43;;
18576;SDS011;9418;52.694;13.294;2022-09-09T09:46:51;3.23;;;1.83;;
18576;SDS011;9418;52.694;13.294;2022-09-09T09:49:18;4.30;;;2.57;;
18576;SDS011;9418;52.694;13.294;2022-09-09T09:51:45;7.80;;;2.10;;
18576;SDS011;9418;52.694;13.294;2022-09-09T09:54:14;2.70;;;1.90;;
18576;SDS011;9418;52.694;13.294;2022-09-09T09:56:48;9.97;;;2.07;;
18576;SDS011;9418;52.694;13.294;2022-09-09T09:59:22;5.40;;;1.73;;
18576;SDS011;9418;52.694;13.294;2022-09-09T10:02:10;6.50;;;1.80;;
18576;SDS011;9418;52.694;13.294;2022-09-09T10:04:41;3.10;;;1.30;;
18576;SDS011;9418;52.694;13.294;2022-09-09T10:07:10;4.63;;;2.10;;
18576;SDS011;9418;52.694;13.294;2022-09-09T10:09:37;8.27;;;2.40;;
18576;SDS011;9418;52.694;13.294;2022-09-09T10:12:06;6.20;;;2.33;;
18576;SDS011;9418;52.694;13.294;2022-09-09T10:14:46;3.27;;;1.80;;
18576;SDS011;9418;52.694;13.294;2022-09-09T10:17:22;2.40;;;1.77;;
18576;SDS011;9418;52.694;13.294;2022-09-09T10:19:59;2.60;;;1.63;;
18576;SDS011;9418;52.694;13.294;2022-09-09T10:22:36;2.00;;;1.60;;
18576;SDS011;9418;52.694;13.294;2022-09-09T10:25:14;3.10;;;1.70;;
18576;SDS011;9418;52.694;13.294;2022-09-09T10:28:09;2.50;;;1.80;;
18576;SDS011;9418;52.694;13.294;2022-09-09T10:30:52;4.73;;;1.90;;
18576;SDS011;9418;52.694;13.294;2022-09-09T10:33:31;8.13;;;1.67;;
18576;SDS011;9418;52.694;13.294;2022-09-09T10:36:05;3.50;;;1.70;;
18576;SDS011;9418;52.694;13.294;2022-09-09T10:38:39;7.97;;;2.50;;
18576;SDS011;9418;52.694;13.294;2022-09-09T10:41:13;3.43;;;1.30;;
18576;SDS011;9418;52.694;13.294;2022-09-09T10:43:47;4.57;;;1.97;;
18576;SDS011;9418;52.694;13.294;2022-09-09T10:46:29;4.60;;;1.40;;
18576;SDS011;9418;52.694;13.294;2022-09-09T10:49:07;6.70;;;1.90;;
18576;SDS011;9418;52.694;13.294;2022-09-09T10:51:46;3.97;;;1.40;;
18576;SDS011;9418;52.694;13.294;2022-09-09T10:54:33;3.90;;;2.00;;
18576;SDS011;9418;52.694;13.294;2022-09-09T10:57:10;3.33;;;1.80;;
18576;SDS011;9418;52.694;13.294;2022-09-09T10:59:43;4.47;;;1.23;;
18576;SDS011;9418;52.694;13.294;2022-09-09T11:02:15;3.13;;;1.80;;
18576;SDS011;9418;52.694;13.294;2022-09-09T11:04:50;3.00;;;1.10;;
18576;SDS011;9418;52.694;13.294;2022-09-09T11:07:25;4.90;;;1.40;;
18576;SDS011;9418;52.694;13.294;2022-09-09T11:09:58;2.13;;;1.40;;
18576;SDS011;9418;52.694;13.294;2022-09-09T11:12:28;5.13;;;1.37;;
18576;SDS011;9418;52.694;13.294;2022-09-09T11:14:57;3.50;;;1.43;;
18576;SDS011;9418;52.694;13.294;2022-09-09T11:17:32;5.10;;;1.20;;
18576;SDS011;9418;52.694;13.294;2022-09-09T11:20:04;4.87;;;1.50;;
18576;SDS011;9418;52.694;13.294;2022-09-09T11:22:33;6.80;;;1.43;;
18576;SDS011;9418;52.694;13.294;2022-09-09T11:25:04;6.80;;;1.67;;
18576;SDS011;9418;52.694;13.294;2022-09-09T11:27:36;3.53;;;1.30;;
18576;SDS011;9418;52.694;13.294;2022-09-09T11:30:19;2.00;;;1.30;;
18576;SDS011;9418;52.694;13.294;2022-09-09T11:32:55;2.43;;;1.03;;
18576;SDS011;9418;52.694;13.294;2022-09-09T11:35:41;2.93;;;1.10;;
18576;SDS011;9418;52.694;13.294;2022-09-09T11:38:25;3.13;;;1.03;;
18576;SDS011;9418;52.694;13.294;2022-09-09T11:40:56;3.77;;;1.10;;
18576;SDS011;9418;52.694;13.294;2022-09-09T11:43:29;3.20;;;1.33;;
18576;SDS011;9418;52.694;13.294;2022-09-09T11:45:58;5.07;;;1.07;;
18576;SDS011;9418;52.694;13.294;2022-09-09T11:48:34;3.40;;;1.60;;
18576;SDS011;9418;52.694;13.294;2022-09-09T11:51:05;1.17;;;0.90;;
18576;SDS011;9418;52.694;13.294;2022-09-09T11:53:33;5.10;;;1.47;;
18576;SDS011;9418;52.694;13.294;2022-09-09T11:56:01;3.43;;;1.30;;
18576;SDS011;9418;52.694;13.294;2022-09-09T11:58:32;4.40;;;1.20;;
18576;SDS011;9418;52.694;13.294;2022-09-09T12:01:12;2.93;;;1.20;;
18576;SDS011;9418;52.694;13.294;2022-09-09T12:03:41;3.07;;;1.47;;
18576;SDS011;9418;52.694;13.294;2022-09-09T12:06:14;2.30;;;0.90;;
18576;SDS011;9418;52.694;13.294;2022-09-09T12:08:46;2.20;;;1.30;;
18576;SDS011;9418;52.694;13.294;2022-09-09T12:11:23;2.70;;;1.23;;
18576;SDS011;9418;52.694;13.294;2022-09-09T12:13:53;7.03;;;1.20;;
18576;SDS011;9418;52.694;13.294;2022-09-09T12:16:27;2.00;;;1.20;;
18576;SDS011;9418;52.694;13.294;2022-09-09T12:19:12;3.03;;;1.00;;
18576;SDS011;9418;52.694;13.294;2022-09-09T12:21:44;1.13;;;0.97;;
18576;SDS011;9418;52.694;13.294;2022-09-09T12:24:18;3.13;;;1.50;;
18576;SDS011;9418;52.694;13.294;2022-09-09T12:26:52;5.30;;;1.20;;
18576;SDS011;9418;52.694;13.294;2022-09-09T12:29:24;2.43;;;1.33;;
18576;SDS011;9418;52.694;13.294;2022-09-09T12:31:59;4.10;;;1.27;;
18576;SDS011;9418;52.694;13.294;2022-09-09T12:34:32;3.03;;;1.20;;
18576;SDS011;9418;52.694;13.294;2022-09-09T12:37:06;4.07;;;0.90;;
18576;SDS011;9418;52.694;13.294;2022-09-09T12:39:43;6.40;;;0.90;;
18576;SDS011;9418;52.694;13.294;2022-09-09T12:42:15;1.20;;;0.97;;
18576;SDS011;9418;52.694;13.294;2022-09-09T12:44:50;2.90;;;1.00;;
18576;SDS011;9418;52.694;13.294;2022-09-09T12:47:17;2.37;;;1.00;;
18576;SDS011;9418;52.694;13.294;2022-09-09T12:49:46;1.60;;;0.90;;
18576;SDS011;9418;52.694;13.294;2022-09-09T12:52:17;2.03;;;1.10;;
18576;SDS011;9418;52.694;13.294;2022-09-09T12:54:49;7.20;;;1.03;;
18576;SDS011;9418;52.694;13.294;2022-09-09T12:57:18;3.90;;;1.20;;
18576;SDS011;9418;52.694;13.294;2022-09-09T12:59:49;4.67;;;1.47;;
18576;SDS011;9418;52.694;13.294;2022-09-09T13:02:17;1.33;;;0.80;;
18576;SDS011;9418;52.694;13.294;2022-09-09T13:04:46;2.30;;;1.03;;
18576;SDS011;9418;52.694;13.294;2022-09-09T13:07:13;6.13;;;1.20;;
18576;SDS011;9418;52.694;13.294;2022-09-09T13:09:42;7.50;;;1.40;;
18576;SDS011;9418;52.694;13.294;2022-09-09T13:12:11;2.73;;;1.33;;
18576;SDS011;9418;52.694;13.294;2022-09-09T13:14:42;1.10;;;0.90;;
18576;SDS011;9418;52.694;13.294;2022-09-09T13:17:15;3.50;;;1.17;;
18576;SDS011;9418;52.694;13.294;2022-09-09T13:19:45;4.13;;;1.30;;
18576;SDS011;9418;52.694;13.294;2022-09-09T13:22:12;6.40;;;1.80;;
18576;SDS011;9418;52.694;13.294;2022-09-09T13:24:45;6.90;;;3.37;;
18576;SDS011;9418;52.694;13.294;2022-09-09T13:27:24;3.30;;;1.43;;
18576;SDS011;9418;52.694;13.294;2022-09-09T13:29:54;5.57;;;2.40;;
18576;SDS011;9418;52.694;13.294;2022-09-09T13:32:21;6.50;;;2.50;;
18576;SDS011;9418;52.694;13.294;2022-09-09T13:34:50;4.00;;;2.03;;
18576;SDS011;9418;52.694;13.294;2022-09-09T13:37:20;6.07;;;1.50;;
18576;SDS011;9418;52.694;13.294;2022-09-09T13:39:52;8.53;;;1.47;;
18576;SDS011;9418;52.694;13.294;2022-09-09T13:42:22;6.93;;;2.10;;
18576;SDS011;9418;52.694;13.294;2022-09-09T13:44:51;2.70;;;1.50;;
18576;SDS011;9418;52.694;13.294;2022-09-09T13:47:19;4.73;;;1.50;;
18576;SDS011;9418;52.694;13.294;2022-09-09T13:49:48;2.53;;;1.20;;
18576;SDS011;9418;52.694;13.294;2022-09-09T13:52:15;4.57;;;1.30;;
18576;SDS011;9418;52.694;13.294;2022-09-09T13:54:46;1.30;;;1.20;;
18576;SDS011;9418;52.694;13.294;2022-09-09T13:57:16;4.17;;;1.30;;
18576;SDS011;9418;52.694;13.294;2022-09-09T13:59:44;3.20;;;1.10;;
18576;SDS011;9418;52.694;13.294;2022-09-09T14:02:11;4.90;;;1.33;;
18576;SDS011;9418;52.694;13.294;2022-09-09T14:04:37;3.20;;;1.80;;
18576;SDS011;9418;52.694;13.294;2022-09-09T14:07:07;3.53;;;1.90;;
18576;SDS011;9418;52.694;13.294;2022-09-09T14:09:37;5.77;;;1.93;;
18576;SDS011;9418;52.694;13.294;2022-09-09T14:12:04;2.40;;;1.50;;
18576;SDS011;9418;52.694;13.294;2022-09-09T14:14:32;2.70;;;1.20;;
18576;SDS011;9418;52.694;13.294;2022-09-09T14:16:58;2.53;;;1.27;;
18576;SDS011;9418;52.694;13.294;2022-09-09T14:19:25;2.77;;;1.00;;
18576;SDS011;9418;52.694;13.294;2022-09-09T14:21:52;3.20;;;1.37;;
18576;SDS011;9418;52.694;13.294;2022-09-09T14:24:19;3.00;;;1.43;;
18576;SDS011;9418;52.694;13.294;2022-09-09T14:26:46;1.00;;;0.90;;
18576;SDS011;9418;52.694;13.294;2022-09-09T14:29:12;2.87;;;0.90;;
18576;SDS011;9418;52.694;13.294;2022-09-09T14:31:40;3.50;;;1.50;;
18576;SDS011;9418;52.694;13.294;2022-09-09T14:34:07;3.33;;;1.10;;
18576;SDS011;9418;52.694;13.294;2022-09-09T14:36:34;2.37;;;1.10;;
18576;SDS011;9418;52.694;13.294;2022-09-09T14:39:01;3.70;;;1.20;;
18576;SDS011;9418;52.694;13.294;2022-09-09T14:41:29;7.90;;;1.50;;
18576;SDS011;9418;52.694;13.294;2022-09-09T14:43:55;3.63;;;1.37;;
18576;SDS011;9418;52.694;13.294;2022-09-09T14:46:22;4.77;;;1.33;;
18576;SDS011;9418;52.694;13.294;2022-09-09T14:48:50;4.67;;;1.37;;
18576;SDS011;9418;52.694;13.294;2022-09-09T14:51:17;2.10;;;1.07;;
18576;SDS011;9418;52.694;13.294;2022-09-09T14:53:47;3.13;;;1.30;;
18576;SDS011;9418;52.694;13.294;2022-09-09T14:56:17;3.17;;;1.03;;
18576;SDS011;9418;52.694;13.294;2022-09-09T14:58:46;2.10;;;1.20;;
18576;SDS011;9418;52.694;13.294;2022-09-09T15:01:13;2.67;;;1.00;;
18576;SDS011;9418;52.694;13.294;2022-09-09T15:03:42;6.83;;;1.13;;
18576;SDS011;9418;52.694;13.294;2022-09-09T15:06:22;8.07;;;2.73;;